createdAt,value
2022-07-25T00:01:59.427Z,2.53
2022-07-25T00:04:27.777Z,3.30
2022-07-25T00:06:54.985Z,3.17
2022-07-25T00:09:22.176Z,2.33
2022-07-25T00:11:49.407Z,2.97
2022-07-25T00:14:16.475Z,3.20
2022-07-25T00:16:43.504Z,3.03
2022-07-25T00:19:11.288Z,2.75
2022-07-25T00:21:38.287Z,3.20
2022-07-25T00:24:07.373Z,2.80
2022-07-25T00:26:39.742Z,2.63
2022-07-25T00:29:07.555Z,3.35
2022-07-25T00:31:35.015Z,2.95
2022-07-25T00:34:03.484Z,3.00
2022-07-25T00:36:30.704Z,2.95
2022-07-25T00:38:57.775Z,2.70
2022-07-25T00:41:24.948Z,2.43
2022-07-25T00:43:51.974Z,2.63
2022-07-25T00:46:19.417Z,3.47
2022-07-25T00:48:48.420Z,2.97
2022-07-25T00:51:17.898Z,2.50
2022-07-25T00:53:46.783Z,2.63
2022-07-25T00:56:14.804Z,2.67
2022-07-25T01:01:08.987Z,2.78
2022-07-25T01:03:36.050Z,3.13
2022-07-25T01:06:03.701Z,2.60
2022-07-25T01:08:32.343Z,3.03
2022-07-25T01:10:59.604Z,2.75
2022-07-25T01:13:26.625Z,2.90
2022-07-25T01:15:53.664Z,3.00
2022-07-25T01:18:20.782Z,2.40
2022-07-25T01:20:48.129Z,2.80
2022-07-25T01:23:15.156Z,2.90
2022-07-25T01:25:42.292Z,2.80
2022-07-25T01:28:09.388Z,2.70
2022-07-25T01:30:36.560Z,2.77
2022-07-25T01:33:06.795Z,2.72
2022-07-25T01:35:34.478Z,2.90
2022-07-25T01:38:01.570Z,2.63
2022-07-25T01:40:28.735Z,2.60
2022-07-25T01:42:55.726Z,2.50
2022-07-25T01:45:23.001Z,3.38
2022-07-25T01:47:49.992Z,2.88
2022-07-25T01:50:17.164Z,2.53
2022-07-25T01:52:44.421Z,2.03
2022-07-25T01:55:11.673Z,2.63
2022-07-25T01:57:41.236Z,3.00
2022-07-25T02:00:18.166Z,2.50
2022-07-25T02:02:46.332Z,2.67
2022-07-25T02:05:15.844Z,2.80
2022-07-25T02:07:42.895Z,2.92
2022-07-25T02:10:10.545Z,2.73
2022-07-25T02:12:37.639Z,2.70
2022-07-25T02:15:05.549Z,2.60
2022-07-25T02:17:32.610Z,2.38
2022-07-25T02:19:59.664Z,2.60
2022-07-25T02:22:26.707Z,2.97
2022-07-25T02:24:53.749Z,2.43
2022-07-25T02:27:20.781Z,2.75
2022-07-25T02:29:47.813Z,2.50
2022-07-25T02:32:14.792Z,2.50
2022-07-25T02:34:41.773Z,2.95
2022-07-25T02:37:08.775Z,2.78
2022-07-25T02:39:35.773Z,3.10
2022-07-25T02:42:02.785Z,3.25
2022-07-25T02:44:29.905Z,3.00
2022-07-25T02:46:56.922Z,2.80
2022-07-25T02:49:23.930Z,2.83
2022-07-25T02:51:51.004Z,3.27
2022-07-25T02:54:18.057Z,2.95
2022-07-25T02:56:45.037Z,2.80
2022-07-25T02:59:12.038Z,2.70
2022-07-25T03:01:39.154Z,2.88
2022-07-25T03:04:06.856Z,2.60
2022-07-25T03:06:34.672Z,3.08
2022-07-25T03:09:02.299Z,2.60
2022-07-25T03:11:29.487Z,3.10
2022-07-25T03:13:56.525Z,2.40
2022-07-25T03:16:23.646Z,2.92
2022-07-25T03:18:50.653Z,2.83
2022-07-25T03:21:17.782Z,2.70
2022-07-25T03:23:50.467Z,2.80
2022-07-25T03:26:19.620Z,2.78
2022-07-25T03:28:46.627Z,3.35
2022-07-25T03:31:13.741Z,3.07
2022-07-25T03:33:40.757Z,2.73
2022-07-25T03:36:08.318Z,2.72
2022-07-25T03:38:35.297Z,3.17
2022-07-25T03:41:02.270Z,2.88
2022-07-25T03:43:31.163Z,2.92
2022-07-25T03:45:58.312Z,3.38
2022-07-25T03:48:25.381Z,3.47
2022-07-25T03:50:52.436Z,2.97
2022-07-25T03:53:19.425Z,3.08
2022-07-25T03:55:46.503Z,3.10
2022-07-25T03:58:13.639Z,3.13
2022-07-25T04:00:40.697Z,3.37
2022-07-25T04:03:08.208Z,3.00
2022-07-25T04:05:35.251Z,3.00
2022-07-25T04:08:02.253Z,2.88
2022-07-25T04:10:29.237Z,3.28
2022-07-25T04:12:56.224Z,2.83
2022-07-25T04:15:23.233Z,3.88
2022-07-25T04:17:50.278Z,3.10
2022-07-25T04:20:17.423Z,2.93
2022-07-25T04:22:46.910Z,2.90
2022-07-25T04:25:14.454Z,3.45
2022-07-25T04:27:41.467Z,3.00
2022-07-25T04:30:10.654Z,2.57
2022-07-25T04:32:37.750Z,3.15
2022-07-25T04:35:05.694Z,3.05
2022-07-25T04:37:32.879Z,3.45
2022-07-25T04:39:59.895Z,3.30
2022-07-25T04:42:28.027Z,3.30
2022-07-25T04:44:55.013Z,2.90
2022-07-25T04:47:22.077Z,3.22
2022-07-25T04:49:49.340Z,2.67
2022-07-25T04:52:16.537Z,3.00
2022-07-25T04:54:43.579Z,2.97
2022-07-25T04:57:10.575Z,3.75
2022-07-25T04:59:37.647Z,2.80
2022-07-25T05:02:04.793Z,3.30
2022-07-25T05:04:31.879Z,3.07
2022-07-25T05:07:02.287Z,3.10
2022-07-25T05:09:29.446Z,3.70
2022-07-25T05:11:56.761Z,3.23
2022-07-25T05:14:23.883Z,3.10
2022-07-25T05:16:51.138Z,3.40
2022-07-25T05:19:18.250Z,3.53
2022-07-25T05:21:45.341Z,3.30
2022-07-25T05:24:12.324Z,3.37
2022-07-25T05:26:39.524Z,4.23
2022-07-25T05:29:06.713Z,3.20
2022-07-25T05:31:33.835Z,2.90
2022-07-25T05:34:00.907Z,3.30
2022-07-25T05:36:28.091Z,3.50
2022-07-25T05:38:55.178Z,2.90
2022-07-25T05:41:22.583Z,3.10
2022-07-25T05:43:49.681Z,3.75
2022-07-25T05:46:17.052Z,3.67
2022-07-25T05:48:45.456Z,3.40
2022-07-25T05:51:13.400Z,3.35
2022-07-25T05:53:40.594Z,3.70
2022-07-25T05:56:08.969Z,3.90
2022-07-25T05:58:37.350Z,3.78
2022-07-25T06:01:04.369Z,4.30
2022-07-25T06:03:31.447Z,4.17
2022-07-25T06:05:58.578Z,3.58
2022-07-25T06:08:28.723Z,3.70
2022-07-25T06:10:59.916Z,4.10
2022-07-25T06:13:28.094Z,4.05
2022-07-25T06:15:55.672Z,4.25
2022-07-25T06:18:24.646Z,4.53
2022-07-25T06:20:52.560Z,4.20
2022-07-25T06:23:20.242Z,4.45
2022-07-25T06:25:50.503Z,4.43
2022-07-25T06:28:18.410Z,4.45
2022-07-25T06:33:13.810Z,4.07
2022-07-25T06:38:07.772Z,4.15
2022-07-25T06:40:34.925Z,4.22
2022-07-25T06:43:02.023Z,4.75
2022-07-25T06:45:29.119Z,4.90
2022-07-25T06:47:56.267Z,4.53
2022-07-25T06:50:23.453Z,4.72
2022-07-25T06:52:50.602Z,4.85
2022-07-25T06:55:17.882Z,5.40
2022-07-25T06:57:45.243Z,4.50
2022-07-25T07:00:14.929Z,4.47
2022-07-25T07:03:01.503Z,5.15
2022-07-25T07:05:34.529Z,5.20
2022-07-25T07:08:02.780Z,5.07
2022-07-25T07:10:31.782Z,5.55
2022-07-25T07:13:13.481Z,4.88
2022-07-25T07:15:49.457Z,5.60
2022-07-25T07:18:21.003Z,5.50
2022-07-25T07:20:48.765Z,5.65
2022-07-25T07:23:16.865Z,5.45
2022-07-25T07:25:47.463Z,5.82
2022-07-25T07:28:16.562Z,5.75
2022-07-25T07:31:14.484Z,5.53
2022-07-25T07:33:31.115Z,5.47
2022-07-25T07:35:58.285Z,5.80
2022-07-25T07:38:26.653Z,5.55
2022-07-25T07:40:54.480Z,5.50
2022-07-25T07:43:25.050Z,6.18
2022-07-25T07:45:56.788Z,6.03
2022-07-25T07:48:23.842Z,6.50
2022-07-25T07:50:50.868Z,7.00
2022-07-25T07:53:17.923Z,6.60
2022-07-25T07:55:55.422Z,6.60
2022-07-25T07:58:22.660Z,8.25
2022-07-25T08:00:52.187Z,7.85
2022-07-25T08:03:21.929Z,7.38
2022-07-25T08:05:51.956Z,7.32
2022-07-25T08:08:19.979Z,6.68
2022-07-25T08:10:49.837Z,6.72
2022-07-25T08:13:22.929Z,7.43
2022-07-25T08:16:00.036Z,7.68
2022-07-25T08:18:32.966Z,8.77
2022-07-25T08:21:06.507Z,8.38
2022-07-25T08:23:39.066Z,8.45
2022-07-25T08:26:07.648Z,9.18
2022-07-25T08:28:34.700Z,8.32
2022-07-25T08:31:01.959Z,8.50
2022-07-25T08:35:59.007Z,8.48
2022-07-25T08:38:29.461Z,8.25
2022-07-25T08:40:58.628Z,8.85
2022-07-25T08:43:25.731Z,8.43
2022-07-25T08:45:55.660Z,8.20
2022-07-25T08:48:27.273Z,8.90
2022-07-25T08:50:59.139Z,8.15
2022-07-25T08:53:35.539Z,8.50
2022-07-25T08:56:14.531Z,8.77
2022-07-25T08:58:44.915Z,8.85
2022-07-25T09:01:14.669Z,8.60
2022-07-25T09:03:43.988Z,8.43
2022-07-25T09:06:23.041Z,7.95
2022-07-25T09:08:57.017Z,8.52
2022-07-25T09:11:36.584Z,8.80
2022-07-25T09:14:14.765Z,7.88
2022-07-25T09:16:45.477Z,8.23
2022-07-25T09:19:19.413Z,8.52
2022-07-25T09:22:04.927Z,8.65
2022-07-25T09:24:34.070Z,8.55
2022-07-25T09:27:12.512Z,8.95
2022-07-25T09:29:45.495Z,9.88
2022-07-25T09:32:23.025Z,9.70
2022-07-25T09:34:51.487Z,8.98
2022-07-25T09:37:27.369Z,8.63
2022-07-25T09:39:54.615Z,8.82
2022-07-25T09:45:12.711Z,8.90
2022-07-25T09:48:01.258Z,9.25
2022-07-25T09:53:02.696Z,9.48
2022-07-25T09:55:31.599Z,10.38
2022-07-25T09:57:59.028Z,9.63
2022-07-25T10:00:31.359Z,9.32
2022-07-25T10:03:44.927Z,10.00
2022-07-25T10:06:40.961Z,9.73
2022-07-25T10:09:15.262Z,9.60
2022-07-25T10:12:19.446Z,9.35
2022-07-25T10:15:12.869Z,9.25
2022-07-25T10:17:42.269Z,9.32
2022-07-25T10:20:11.254Z,9.85
2022-07-25T10:22:57.381Z,9.80
2022-07-25T10:25:25.200Z,10.13
2022-07-25T10:30:39.613Z,9.48
2022-07-25T10:33:19.899Z,9.88
2022-07-25T10:35:47.513Z,10.27
2022-07-25T10:38:14.650Z,9.77
2022-07-25T10:43:22.988Z,10.85
2022-07-25T10:45:59.381Z,10.18
2022-07-25T10:48:32.396Z,10.07
2022-07-25T10:51:08.147Z,10.38
2022-07-25T10:53:47.376Z,9.65
2022-07-25T10:56:22.124Z,9.63
2022-07-25T10:58:54.162Z,9.80
2022-07-25T11:01:34.678Z,9.45
2022-07-25T11:04:15.683Z,10.40
2022-07-25T11:06:43.618Z,9.40
2022-07-25T11:09:29.116Z,9.48
2022-07-25T11:11:59.896Z,9.60
2022-07-25T11:14:37.527Z,9.32
2022-07-25T11:17:22.557Z,9.35
2022-07-25T11:20:05.787Z,8.80
2022-07-25T11:22:37.215Z,9.70
2022-07-25T11:25:14.494Z,8.65
2022-07-25T11:27:41.629Z,9.18
2022-07-25T11:32:58.587Z,9.48
2022-07-25T11:35:32.238Z,9.90
2022-07-25T11:38:03.920Z,8.90
2022-07-25T11:40:33.693Z,9.27
2022-07-25T11:43:01.163Z,9.57
2022-07-25T11:45:34.495Z,9.20
2022-07-25T11:48:15.135Z,9.20
2022-07-25T11:50:46.266Z,10.40
2022-07-25T11:53:17.285Z,9.20
2022-07-25T11:55:44.895Z,9.43
2022-07-25T11:58:14.999Z,8.80
2022-07-25T12:00:50.312Z,8.50
2022-07-25T12:03:23.357Z,8.60
2022-07-25T12:05:50.969Z,9.45
2022-07-25T12:08:23.204Z,9.40
2022-07-25T12:10:51.653Z,9.07
2022-07-25T12:13:27.219Z,10.07
2022-07-25T12:15:59.232Z,9.50
2022-07-25T12:18:28.072Z,9.07
2022-07-25T12:20:55.448Z,9.98
2022-07-25T12:23:22.816Z,9.15
2022-07-25T12:25:51.125Z,9.63
2022-07-25T12:28:18.468Z,9.82
2022-07-25T12:30:52.892Z,9.93
2022-07-25T12:33:23.582Z,9.55
2022-07-25T12:35:50.748Z,9.32
2022-07-25T12:40:44.872Z,8.95
2022-07-25T12:45:40.146Z,9.32
2022-07-25T12:48:07.369Z,9.13
2022-07-25T12:53:02.117Z,8.40
2022-07-25T12:55:29.187Z,8.57
2022-07-25T12:57:56.339Z,8.68
2022-07-25T13:00:24.088Z,8.65
2022-07-25T13:02:55.878Z,8.85
2022-07-25T13:05:25.957Z,8.32
2022-07-25T13:07:53.425Z,9.00
2022-07-25T13:10:21.326Z,9.30
2022-07-25T13:12:49.280Z,8.90
2022-07-25T13:15:18.225Z,8.93
2022-07-25T13:17:45.290Z,8.57
2022-07-25T13:22:39.631Z,8.02
2022-07-25T13:25:07.457Z,9.65
2022-07-25T13:27:34.597Z,9.00
2022-07-25T13:32:28.817Z,8.35
2022-07-25T13:34:55.879Z,8.75
2022-07-25T13:37:23.516Z,8.70
2022-07-25T13:39:50.630Z,8.32
2022-07-25T13:44:45.379Z,8.70
2022-07-25T13:47:12.562Z,8.35
2022-07-25T13:52:06.949Z,8.82
2022-07-25T13:54:34.086Z,9.13
2022-07-25T13:59:30.956Z,8.18
2022-07-25T14:01:58.161Z,8.88
2022-07-25T14:04:25.329Z,8.82
2022-07-25T14:09:23.034Z,8.57
2022-07-25T14:11:50.372Z,8.50
2022-07-25T14:14:17.849Z,8.90
2022-07-25T14:16:45.876Z,8.85
2022-07-25T14:19:12.917Z,8.75
2022-07-25T14:21:39.990Z,8.55
2022-07-25T14:26:35.632Z,8.40
2022-07-25T14:29:03.375Z,8.85
2022-07-25T14:31:32.154Z,7.88
2022-07-25T14:33:59.265Z,8.45
2022-07-25T14:38:53.312Z,8.52
2022-07-25T14:43:48.370Z,8.50
2022-07-25T14:46:15.991Z,8.77
2022-07-25T14:48:43.330Z,8.45
2022-07-25T14:51:10.385Z,8.13
2022-07-25T14:53:37.615Z,8.60
2022-07-25T14:56:06.769Z,8.20
2022-07-25T14:58:34.250Z,8.52
2022-07-25T15:01:02.118Z,9.48
2022-07-25T15:03:29.260Z,8.38
2022-07-25T15:08:23.914Z,8.70
2022-07-25T15:10:51.111Z,8.60
2022-07-25T15:16:00.385Z,8.13
2022-07-25T15:18:27.970Z,8.68
2022-07-25T15:20:55.494Z,8.80
2022-07-25T15:23:25.108Z,9.30
2022-07-25T15:26:01.645Z,8.23
2022-07-25T15:28:29.606Z,7.88
2022-07-25T15:30:56.596Z,8.02
2022-07-25T15:33:23.696Z,8.57
2022-07-25T15:35:50.891Z,8.25
2022-07-25T15:40:47.483Z,8.25
2022-07-25T15:43:14.514Z,9.02
2022-07-25T15:45:46.048Z,8.23
2022-07-25T15:48:17.025Z,7.97
2022-07-25T15:50:51.805Z,8.30
2022-07-25T15:53:19.244Z,8.18
2022-07-25T15:55:46.472Z,8.20
2022-07-25T16:00:41.362Z,7.90
2022-07-25T16:03:09.306Z,7.88
2022-07-25T16:05:38.796Z,7.90
2022-07-25T16:08:08.715Z,7.65
2022-07-25T16:10:38.139Z,8.38
2022-07-25T16:13:05.325Z,7.53
2022-07-25T16:18:02.663Z,8.27
2022-07-25T16:20:33.361Z,7.45
2022-07-25T16:23:01.414Z,7.97
2022-07-25T16:25:30.582Z,7.82
2022-07-25T16:27:59.923Z,8.32
2022-07-25T16:30:28.446Z,7.70
2022-07-25T16:32:55.757Z,7.45
2022-07-25T16:35:23.357Z,7.78
2022-07-25T16:37:51.459Z,7.82
2022-07-25T16:40:18.633Z,7.80
2022-07-25T16:42:49.697Z,8.32
2022-07-25T16:45:16.786Z,8.13
2022-07-25T16:47:44.971Z,8.52
2022-07-25T16:50:12.064Z,8.82
2022-07-25T16:52:39.271Z,8.68
2022-07-25T16:57:33.798Z,7.75
2022-07-25T17:00:01.043Z,8.57
2022-07-25T17:04:58.380Z,8.55
2022-07-25T17:07:26.593Z,8.55
2022-07-25T17:09:53.914Z,8.40
2022-07-25T17:14:49.236Z,8.10
2022-07-25T17:19:43.574Z,8.23
2022-07-25T17:24:40.738Z,11.55
2022-07-25T17:27:09.787Z,8.75
2022-07-25T17:29:37.986Z,8.15
2022-07-25T17:32:08.641Z,6.68
2022-07-25T17:34:35.722Z,6.72
2022-07-25T17:37:03.265Z,8.48
2022-07-25T17:39:34.934Z,6.63
2022-07-25T17:42:02.510Z,6.75
2022-07-25T17:44:29.665Z,6.72
2022-07-25T17:46:56.727Z,6.45
2022-07-25T17:49:23.940Z,5.85
2022-07-25T17:51:51.577Z,5.38
2022-07-25T17:54:18.693Z,7.18
2022-07-25T17:56:45.948Z,7.15
2022-07-25T17:59:13.797Z,8.05
2022-07-25T18:04:08.947Z,7.70
2022-07-25T18:06:36.796Z,8.18
2022-07-25T18:09:04.556Z,8.75
2022-07-25T18:11:32.216Z,8.80
2022-07-25T18:13:59.728Z,9.27
2022-07-25T18:16:27.280Z,8.88
2022-07-25T18:18:55.264Z,10.23
2022-07-25T18:21:23.871Z,9.95
2022-07-25T18:23:52.329Z,10.02
2022-07-25T18:26:20.646Z,9.70
2022-07-25T18:28:48.297Z,9.60
2022-07-25T18:31:15.445Z,10.52
2022-07-25T18:33:42.707Z,10.38
2022-07-25T18:36:09.949Z,9.38
2022-07-25T18:38:37.793Z,10.43
2022-07-25T18:43:53.709Z,8.68
2022-07-25T18:46:21.582Z,9.48
2022-07-25T18:48:49.026Z,9.93
2022-07-25T18:51:16.526Z,10.45
2022-07-25T18:53:47.943Z,9.98
2022-07-25T18:56:17.278Z,10.52
2022-07-25T18:58:45.436Z,10.35
2022-07-25T19:01:12.913Z,9.77
2022-07-25T19:03:40.880Z,10.63
2022-07-25T19:06:10.435Z,10.43
2022-07-25T19:08:38.343Z,9.85
2022-07-25T19:11:06.509Z,10.68
2022-07-25T19:13:51.121Z,9.75
2022-07-25T19:16:19.454Z,10.23
2022-07-25T19:18:47.413Z,10.63
2022-07-25T19:21:15.510Z,10.07
2022-07-25T19:23:49.724Z,10.00
2022-07-25T19:26:19.921Z,10.65
2022-07-25T19:28:48.720Z,11.10
2022-07-25T19:31:16.004Z,11.52
2022-07-25T19:33:45.663Z,9.90
2022-07-25T19:36:14.441Z,9.77
2022-07-25T19:38:41.676Z,10.85
2022-07-25T19:41:09.205Z,10.05
2022-07-25T19:43:36.277Z,10.30
2022-07-25T19:46:03.369Z,10.40
2022-07-25T19:48:30.565Z,10.18
2022-07-25T19:50:57.881Z,9.38
2022-07-25T19:53:28.580Z,9.77
2022-07-25T19:55:56.449Z,9.75
2022-07-25T19:58:23.713Z,10.07
2022-07-25T20:00:50.987Z,10.18
2022-07-25T20:03:23.458Z,11.00
2022-07-25T20:05:52.277Z,9.73
2022-07-25T20:08:19.470Z,10.85
2022-07-25T20:10:48.442Z,9.20
2022-07-25T20:13:15.846Z,8.88
2022-07-25T20:15:43.026Z,8.43
2022-07-25T20:18:10.130Z,8.52
2022-07-25T20:20:37.489Z,8.65
2022-07-25T20:23:04.748Z,8.85
2022-07-25T20:25:32.033Z,8.52
2022-07-25T20:27:59.523Z,8.70
2022-07-25T20:30:29.244Z,8.88
2022-07-25T20:33:00.170Z,8.88
2022-07-25T20:35:34.439Z,8.00
2022-07-25T20:38:02.732Z,8.05
2022-07-25T20:40:37.883Z,8.90
2022-07-25T20:43:09.715Z,8.73
2022-07-25T20:45:37.416Z,8.63
2022-07-25T20:48:06.227Z,9.32
2022-07-25T20:50:33.394Z,9.45
2022-07-25T20:53:00.632Z,10.35
2022-07-25T20:55:28.526Z,9.35
2022-07-25T21:00:25.761Z,9.07
2022-07-25T21:02:52.839Z,9.70
2022-07-25T21:05:21.472Z,10.40
2022-07-25T21:07:48.962Z,9.73
2022-07-25T21:10:16.830Z,11.32
2022-07-25T21:15:13.162Z,10.63
2022-07-25T21:17:41.829Z,10.35
2022-07-25T21:20:13.101Z,10.40
2022-07-25T21:22:42.185Z,9.30
2022-07-25T21:25:11.727Z,10.98
2022-07-25T21:27:40.247Z,10.48
2022-07-25T21:30:11.923Z,10.20
2022-07-25T21:32:41.754Z,10.10
2022-07-25T21:35:09.921Z,9.93
2022-07-25T21:37:37.173Z,9.57
2022-07-25T21:40:05.124Z,9.55
2022-07-25T21:42:32.314Z,9.77
2022-07-25T21:44:59.385Z,9.23
2022-07-25T21:47:26.528Z,9.82
2022-07-25T21:50:13.193Z,10.43
2022-07-25T21:52:43.327Z,9.85
2022-07-25T21:55:10.583Z,10.18
2022-07-25T21:57:37.787Z,9.20
2022-07-25T22:00:12.347Z,11.30
2022-07-25T22:02:43.462Z,9.52
2022-07-25T22:05:17.172Z,9.80
2022-07-25T22:07:47.462Z,9.98
2022-07-25T22:10:18.964Z,10.32
2022-07-25T22:12:47.034Z,11.50
2022-07-25T22:15:15.284Z,11.02
2022-07-25T22:17:48.507Z,11.20
2022-07-25T22:20:17.751Z,10.95
2022-07-25T22:22:46.994Z,10.60
2022-07-25T22:25:15.007Z,12.30
2022-07-25T22:27:42.321Z,11.45
2022-07-25T22:30:14.866Z,11.65
2022-07-25T22:32:45.575Z,11.07
2022-07-25T22:35:13.302Z,10.75
2022-07-25T22:37:40.451Z,11.77
2022-07-25T22:40:08.169Z,12.15
2022-07-25T22:42:35.307Z,12.32
2022-07-25T22:45:02.722Z,10.65
2022-07-25T22:47:29.723Z,11.38
2022-07-25T22:49:56.799Z,12.27
2022-07-25T22:52:24.136Z,12.00
2022-07-25T22:54:51.313Z,11.80
2022-07-25T22:57:18.330Z,12.23
2022-07-25T22:59:49.291Z,11.77
2022-07-25T23:02:16.647Z,11.75
2022-07-25T23:04:44.108Z,11.88
2022-07-25T23:07:11.268Z,11.32
2022-07-25T23:09:38.370Z,12.30
2022-07-25T23:12:08.358Z,14.57
2022-07-25T23:14:35.789Z,13.35
2022-07-25T23:17:17.885Z,13.27
2022-07-25T23:19:51.769Z,14.65
2022-07-25T23:22:22.860Z,13.55
2022-07-25T23:24:50.627Z,13.68
2022-07-25T23:27:18.569Z,13.85
2022-07-25T23:32:12.778Z,13.10
2022-07-25T23:34:40.325Z,13.43
2022-07-25T23:37:07.804Z,14.18
2022-07-25T23:39:35.023Z,15.18
2022-07-25T23:42:03.114Z,15.75
2022-07-25T23:44:30.407Z,15.30
2022-07-25T23:46:59.930Z,16.52
2022-07-25T23:49:28.742Z,14.77
2022-07-25T23:51:57.305Z,16.20
2022-07-25T23:54:25.246Z,16.90
2022-07-25T23:59:20.924Z,14.13
